sensor_id;sensor_type;location;lat;lon;timestamp;temperature;humidity
38582;DHT22;24349;53.720;10.014;2023-08-07T00:00:00;15.40;99.90
38582;DHT22;24349;53.720;10.014;2023-08-07T00:02:26;15.50;99.90
38582;DHT22;24349;53.720;10.014;2023-08-07T00:04:51;15.50;99.90
38582;DHT22;24349;53.720;10.014;2023-08-07T00:07:17;15.40;99.90
38582;DHT22;24349;53.720;10.014;2023-08-07T00:09:43;15.40;99.90
38582;DHT22;24349;53.720;10.014;2023-08-07T00:12:09;15.40;99.90
38582;DHT22;24349;53.720;10.014;2023-08-07T00:14:34;15.40;99.90
38582;DHT22;24349;53.720;10.014;2023-08-07T00:17:00;15.40;99.90
38582;DHT22;24349;53.720;10.014;2023-08-07T00:19:26;15.40;99.90
38582;DHT22;24349;53.720;10.014;2023-08-07T00:21:51;15.40;99.90
38582;DHT22;24349;53.720;10.014;2023-08-07T00:24:17;15.40;99.90
38582;DHT22;24349;53.720;10.014;2023-08-07T00:26:42;15.30;99.90
38582;DHT22;24349;53.720;10.014;2023-08-07T00:29:08;15.30;99.90
38582;DHT22;24349;53.720;10.014;2023-08-07T00:31:34;15.30;99.90
38582;DHT22;24349;53.720;10.014;2023-08-07T00:33:59;15.30;99.90
38582;DHT22;24349;53.720;10.014;2023-08-07T00:36:25;15.30;99.90
38582;DHT22;24349;53.720;10.014;2023-08-07T00:38:54;15.20;99.90
38582;DHT22;24349;53.720;10.014;2023-08-07T00:41:20;15.30;99.90
38582;DHT22;24349;53.720;10.014;2023-08-07T00:43:45;15.20;99.90
38582;DHT22;24349;53.720;10.014;2023-08-07T00:46:11;15.20;99.90
38582;DHT22;24349;53.720;10.014;2023-08-07T00:48:37;15.20;99.90
38582;DHT22;24349;53.720;10.014;2023-08-07T00:51:03;15.20;99.90
38582;DHT22;24349;53.720;10.014;2023-08-07T00:53:30;15.10;99.90
38582;DHT22;24349;53.720;10.014;2023-08-07T00:55:56;15.10;99.90
38582;DHT22;24349;53.720;10.014;2023-08-07T00:58:23;15.10;99.90
38582;DHT22;24349;53.720;10.014;2023-08-07T01:00:49;15.20;99.90
38582;DHT22;24349;53.720;10.014;2023-08-07T01:03:15;15.20;99.90
38582;DHT22;24349;53.720;10.014;2023-08-07T01:05:40;15.20;99.90
38582;DHT22;24349;53.720;10.014;2023-08-07T01:08:06;15.20;99.90
38582;DHT22;24349;53.720;10.014;2023-08-07T01:11:03;15.20;99.90
38582;DHT22;24349;53.720;10.014;2023-08-07T01:16:10;15.10;99.90
38582;DHT22;24349;53.720;10.014;2023-08-07T01:18:38;15.10;99.90
38582;DHT22;24349;53.720;10.014;2023-08-07T01:21:05;15.00;99.90
38582;DHT22;24349;53.720;10.014;2023-08-07T01:23:30;15.00;99.90
38582;DHT22;24349;53.720;10.014;2023-08-07T01:25:56;15.10;99.90
38582;DHT22;24349;53.720;10.014;2023-08-07T01:30:54;15.00;99.90
38582;DHT22;24349;53.720;10.014;2023-08-07T01:33:31;15.00;99.90
38582;DHT22;24349;53.720;10.014;2023-08-07T01:35:58;15.00;99.90
38582;DHT22;24349;53.720;10.014;2023-08-07T01:38:26;15.00;99.90
38582;DHT22;24349;53.720;10.014;2023-08-07T01:40:52;15.00;99.90
38582;DHT22;24349;53.720;10.014;2023-08-07T01:43:19;14.90;99.90
38582;DHT22;24349;53.720;10.014;2023-08-07T01:45:45;14.90;99.90
38582;DHT22;24349;53.720;10.014;2023-08-07T01:48:11;14.80;99.90
38582;DHT22;24349;53.720;10.014;2023-08-07T01:50:38;14.80;99.90
38582;DHT22;24349;53.720;10.014;2023-08-07T01:53:04;14.80;99.90
38582;DHT22;24349;53.720;10.014;2023-08-07T01:55:30;14.80;99.90
38582;DHT22;24349;53.720;10.014;2023-08-07T01:57:56;14.70;99.90
38582;DHT22;24349;53.720;10.014;2023-08-07T02:00:22;14.80;99.90
38582;DHT22;24349;53.720;10.014;2023-08-07T02:02:48;14.70;99.90
38582;DHT22;24349;53.720;10.014;2023-08-07T02:05:14;14.70;99.90
38582;DHT22;24349;53.720;10.014;2023-08-07T02:07:40;14.60;99.90
38582;DHT22;24349;53.720;10.014;2023-08-07T02:10:06;14.60;99.90
38582;DHT22;24349;53.720;10.014;2023-08-07T02:12:32;14.70;99.90
38582;DHT22;24349;53.720;10.014;2023-08-07T02:14:58;14.70;99.90
38582;DHT22;24349;53.720;10.014;2023-08-07T02:17:25;14.70;99.90
38582;DHT22;24349;53.720;10.014;2023-08-07T02:19:51;14.70;99.90
38582;DHT22;24349;53.720;10.014;2023-08-07T02:22:17;14.60;99.90
38582;DHT22;24349;53.720;10.014;2023-08-07T02:24:42;14.70;99.90
38582;DHT22;24349;53.720;10.014;2023-08-07T02:27:08;14.70;99.90
38582;DHT22;24349;53.720;10.014;2023-08-07T02:29:33;14.70;99.90
38582;DHT22;24349;53.720;10.014;2023-08-07T02:32:03;14.70;99.90
38582;DHT22;24349;53.720;10.014;2023-08-07T02:34:29;14.80;99.90
38582;DHT22;24349;53.720;10.014;2023-08-07T02:36:55;14.80;99.90
38582;DHT22;24349;53.720;10.014;2023-08-07T02:39:21;14.70;99.90
38582;DHT22;24349;53.720;10.014;2023-08-07T02:41:46;14.60;99.90
38582;DHT22;24349;53.720;10.014;2023-08-07T02:44:12;14.60;99.90
38582;DHT22;24349;53.720;10.014;2023-08-07T02:46:38;14.50;99.90
38582;DHT22;24349;53.720;10.014;2023-08-07T02:49:04;14.50;99.90
38582;DHT22;24349;53.720;10.014;2023-08-07T02:51:30;14.50;99.90
38582;DHT22;24349;53.720;10.014;2023-08-07T02:53:56;14.50;99.90
38582;DHT22;24349;53.720;10.014;2023-08-07T02:56:21;14.50;99.90
38582;DHT22;24349;53.720;10.014;2023-08-07T02:58:47;14.50;99.90
38582;DHT22;24349;53.720;10.014;2023-08-07T03:01:13;14.50;99.90
38582;DHT22;24349;53.720;10.014;2023-08-07T03:03:38;14.50;99.90
38582;DHT22;24349;53.720;10.014;2023-08-07T03:06:04;14.50;99.90
38582;DHT22;24349;53.720;10.014;2023-08-07T03:08:30;14.50;99.90
38582;DHT22;24349;53.720;10.014;2023-08-07T03:10:56;14.50;99.90
38582;DHT22;24349;53.720;10.014;2023-08-07T03:13:26;14.60;99.90
38582;DHT22;24349;53.720;10.014;2023-08-07T03:16:07;14.60;99.90
38582;DHT22;24349;53.720;10.014;2023-08-07T03:18:33;14.60;99.90
38582;DHT22;24349;53.720;10.014;2023-08-07T03:20:59;14.60;99.90
38582;DHT22;24349;53.720;10.014;2023-08-07T03:23:26;14.60;99.90
38582;DHT22;24349;53.720;10.014;2023-08-07T03:26:06;14.60;99.90
38582;DHT22;24349;53.720;10.014;2023-08-07T03:28:32;14.70;99.90
38582;DHT22;24349;53.720;10.014;2023-08-07T03:30:58;14.70;99.90
38582;DHT22;24349;53.720;10.014;2023-08-07T03:33:24;14.80;99.90
38582;DHT22;24349;53.720;10.014;2023-08-07T03:35:49;14.80;99.90
38582;DHT22;24349;53.720;10.014;2023-08-07T03:38:15;14.80;99.90
38582;DHT22;24349;53.720;10.014;2023-08-07T03:40:40;14.80;99.90
38582;DHT22;24349;53.720;10.014;2023-08-07T03:43:06;14.80;99.90
38582;DHT22;24349;53.720;10.014;2023-08-07T03:45:32;14.80;99.90
38582;DHT22;24349;53.720;10.014;2023-08-07T03:47:57;14.80;99.90
38582;DHT22;24349;53.720;10.014;2023-08-07T03:50:23;14.90;99.90
38582;DHT22;24349;53.720;10.014;2023-08-07T03:52:48;14.90;99.90
38582;DHT22;24349;53.720;10.014;2023-08-07T03:55:14;15.00;99.90
38582;DHT22;24349;53.720;10.014;2023-08-07T03:57:40;15.00;99.90
38582;DHT22;24349;53.720;10.014;2023-08-07T04:00:06;15.00;99.90
38582;DHT22;24349;53.720;10.014;2023-08-07T04:02:32;15.00;99.90
38582;DHT22;24349;53.720;10.014;2023-08-07T04:04:58;15.00;99.90
38582;DHT22;24349;53.720;10.014;2023-08-07T04:07:23;15.00;99.90
38582;DHT22;24349;53.720;10.014;2023-08-07T04:09:49;15.00;99.90
38582;DHT22;24349;53.720;10.014;2023-08-07T04:12:15;15.00;99.90
38582;DHT22;24349;53.720;10.014;2023-08-07T04:14:40;15.00;99.90
38582;DHT22;24349;53.720;10.014;2023-08-07T04:17:06;15.10;99.90
38582;DHT22;24349;53.720;10.014;2023-08-07T04:19:31;15.10;99.90
38582;DHT22;24349;53.720;10.014;2023-08-07T04:21:57;15.10;99.90
38582;DHT22;24349;53.720;10.014;2023-08-07T04:24:23;15.00;99.90
38582;DHT22;24349;53.720;10.014;2023-08-07T04:26:48;15.00;99.90
38582;DHT22;24349;53.720;10.014;2023-08-07T04:29:14;15.00;99.90
38582;DHT22;24349;53.720;10.014;2023-08-07T04:31:40;15.00;99.90
38582;DHT22;24349;53.720;10.014;2023-08-07T04:34:05;15.00;99.90
38582;DHT22;24349;53.720;10.014;2023-08-07T04:36:31;15.00;99.90
38582;DHT22;24349;53.720;10.014;2023-08-07T04:38:57;15.00;99.90
38582;DHT22;24349;53.720;10.014;2023-08-07T04:41:22;15.10;99.90
38582;DHT22;24349;53.720;10.014;2023-08-07T04:43:48;15.10;99.90
38582;DHT22;24349;53.720;10.014;2023-08-07T04:46:14;15.10;99.90
38582;DHT22;24349;53.720;10.014;2023-08-07T04:48:40;15.20;99.90
38582;DHT22;24349;53.720;10.014;2023-08-07T04:51:06;15.30;99.90
38582;DHT22;24349;53.720;10.014;2023-08-07T04:53:31;15.20;99.90
38582;DHT22;24349;53.720;10.014;2023-08-07T04:55:59;15.30;99.90
38582;DHT22;24349;53.720;10.014;2023-08-07T04:58:25;15.40;99.90
38582;DHT22;24349;53.720;10.014;2023-08-07T05:00:58;15.40;99.90
38582;DHT22;24349;53.720;10.014;2023-08-07T05:03:25;15.50;99.90
38582;DHT22;24349;53.720;10.014;2023-08-07T05:05:58;15.50;99.90
38582;DHT22;24349;53.720;10.014;2023-08-07T05:08:23;15.50;99.90
38582;DHT22;24349;53.720;10.014;2023-08-07T05:10:49;15.60;99.90
38582;DHT22;24349;53.720;10.014;2023-08-07T05:13:15;15.60;99.90
38582;DHT22;24349;53.720;10.014;2023-08-07T05:15:40;15.60;99.90
38582;DHT22;24349;53.720;10.014;2023-08-07T05:18:06;15.60;99.90
38582;DHT22;24349;53.720;10.014;2023-08-07T05:20:32;15.60;99.90
38582;DHT22;24349;53.720;10.014;2023-08-07T05:22:57;15.70;99.90
38582;DHT22;24349;53.720;10.014;2023-08-07T05:25:23;15.70;99.90
38582;DHT22;24349;53.720;10.014;2023-08-07T05:27:48;15.80;99.90
38582;DHT22;24349;53.720;10.014;2023-08-07T05:30:14;15.80;99.90
38582;DHT22;24349;53.720;10.014;2023-08-07T05:32:40;15.80;99.90
38582;DHT22;24349;53.720;10.014;2023-08-07T05:35:06;15.80;99.90
38582;DHT22;24349;53.720;10.014;2023-08-07T05:37:33;15.90;99.90
38582;DHT22;24349;53.720;10.014;2023-08-07T05:39:58;15.90;99.90
38582;DHT22;24349;53.720;10.014;2023-08-07T05:42:24;16.00;99.90
38582;DHT22;24349;53.720;10.014;2023-08-07T05:44:50;16.00;99.90
38582;DHT22;24349;53.720;10.014;2023-08-07T05:47:16;16.00;99.90
38582;DHT22;24349;53.720;10.014;2023-08-07T05:49:41;16.10;99.90
38582;DHT22;24349;53.720;10.014;2023-08-07T05:52:07;16.10;99.90
38582;DHT22;24349;53.720;10.014;2023-08-07T05:54:33;16.10;99.90
38582;DHT22;24349;53.720;10.014;2023-08-07T05:56:59;16.10;99.90
38582;DHT22;24349;53.720;10.014;2023-08-07T05:59:24;16.10;99.90
38582;DHT22;24349;53.720;10.014;2023-08-07T06:01:50;16.10;99.90
38582;DHT22;24349;53.720;10.014;2023-08-07T06:04:16;16.20;99.90
38582;DHT22;24349;53.720;10.014;2023-08-07T06:06:42;16.30;99.90
38582;DHT22;24349;53.720;10.014;2023-08-07T06:09:08;16.30;99.90
38582;DHT22;24349;53.720;10.014;2023-08-07T06:11:34;16.20;99.90
38582;DHT22;24349;53.720;10.014;2023-08-07T06:13:59;16.20;99.90
38582;DHT22;24349;53.720;10.014;2023-08-07T06:16:25;16.20;99.90
38582;DHT22;24349;53.720;10.014;2023-08-07T06:18:51;16.20;99.90
38582;DHT22;24349;53.720;10.014;2023-08-07T06:21:17;16.30;99.90
38582;DHT22;24349;53.720;10.014;2023-08-07T06:23:42;16.30;99.90
38582;DHT22;24349;53.720;10.014;2023-08-07T06:26:08;16.30;99.90
38582;DHT22;24349;53.720;10.014;2023-08-07T06:28:34;16.30;99.90
38582;DHT22;24349;53.720;10.014;2023-08-07T06:31:06;16.40;99.90
38582;DHT22;24349;53.720;10.014;2023-08-07T06:33:32;16.50;99.90
38582;DHT22;24349;53.720;10.014;2023-08-07T06:36:02;16.50;99.90
38582;DHT22;24349;53.720;10.014;2023-08-07T06:38:28;16.50;99.90
38582;DHT22;24349;53.720;10.014;2023-08-07T06:40:54;16.60;99.90
38582;DHT22;24349;53.720;10.014;2023-08-07T06:43:19;16.60;99.90
38582;DHT22;24349;53.720;10.014;2023-08-07T06:45:55;16.50;99.90
38582;DHT22;24349;53.720;10.014;2023-08-07T06:48:21;16.50;99.90
38582;DHT22;24349;53.720;10.014;2023-08-07T06:50:47;16.50;99.90
38582;DHT22;24349;53.720;10.014;2023-08-07T06:53:13;16.70;99.90
38582;DHT22;24349;53.720;10.014;2023-08-07T06:55:40;16.80;99.90
38582;DHT22;24349;53.720;10.014;2023-08-07T06:58:06;16.70;99.90
38582;DHT22;24349;53.720;10.014;2023-08-07T07:00:31;16.80;99.90
38582;DHT22;24349;53.720;10.014;2023-08-07T07:02:59;16.70;99.90
38582;DHT22;24349;53.720;10.014;2023-08-07T07:05:24;16.70;99.90
38582;DHT22;24349;53.720;10.014;2023-08-07T07:07:50;16.60;99.90
38582;DHT22;24349;53.720;10.014;2023-08-07T07:10:16;16.70;99.90
38582;DHT22;24349;53.720;10.014;2023-08-07T07:12:41;16.80;99.90
38582;DHT22;24349;53.720;10.014;2023-08-07T07:15:07;16.80;95.50
38582;DHT22;24349;53.720;10.014;2023-08-07T07:17:33;17.00;99.50
38582;DHT22;24349;53.720;10.014;2023-08-07T07:19:58;17.00;94.00
38582;DHT22;24349;53.720;10.014;2023-08-07T07:22:24;17.10;91.30
38582;DHT22;24349;53.720;10.014;2023-08-07T07:24:50;17.10;88.70
38582;DHT22;24349;53.720;10.014;2023-08-07T07:27:15;17.10;74.30
38582;DHT22;24349;53.720;10.014;2023-08-07T07:29:41;17.00;76.00
38582;DHT22;24349;53.720;10.014;2023-08-07T07:32:07;17.10;80.00
38582;DHT22;24349;53.720;10.014;2023-08-07T07:34:33;17.00;76.40
38582;DHT22;24349;53.720;10.014;2023-08-07T07:36:59;17.10;82.40
38582;DHT22;24349;53.720;10.014;2023-08-07T07:39:24;17.00;74.50
38582;DHT22;24349;53.720;10.014;2023-08-07T07:41:50;17.10;79.80
38582;DHT22;24349;53.720;10.014;2023-08-07T07:44:16;17.40;76.30
38582;DHT22;24349;53.720;10.014;2023-08-07T07:46:41;17.60;79.50
38582;DHT22;24349;53.720;10.014;2023-08-07T07:49:07;17.90;38.50
38582;DHT22;24349;53.720;10.014;2023-08-07T07:51:32;17.90;24.40
38582;DHT22;24349;53.720;10.014;2023-08-07T07:53:58;18.20;31.60
38582;DHT22;24349;53.720;10.014;2023-08-07T07:56:24;18.20;17.90
38582;DHT22;24349;53.720;10.014;2023-08-07T07:58:50;18.20;19.30
38582;DHT22;24349;53.720;10.014;2023-08-07T08:01:15;17.90;9.00
38582;DHT22;24349;53.720;10.014;2023-08-07T08:03:41;17.60;26.60
38582;DHT22;24349;53.720;10.014;2023-08-07T08:06:10;17.50;33.30
38582;DHT22;24349;53.720;10.014;2023-08-07T08:08:36;17.20;52.30
38582;DHT22;24349;53.720;10.014;2023-08-07T08:11:01;17.00;51.00
38582;DHT22;24349;53.720;10.014;2023-08-07T08:13:27;16.70;90.40
38582;DHT22;24349;53.720;10.014;2023-08-07T08:15:53;16.60;98.60
38582;DHT22;24349;53.720;10.014;2023-08-07T08:18:18;16.60;99.90
38582;DHT22;24349;53.720;10.014;2023-08-07T08:20:44;16.70;92.80
38582;DHT22;24349;53.720;10.014;2023-08-07T08:23:09;17.00;93.10
38582;DHT22;24349;53.720;10.014;2023-08-07T08:25:35;17.20;91.30
38582;DHT22;24349;53.720;10.014;2023-08-07T08:28:01;17.30;74.00
38582;DHT22;24349;53.720;10.014;2023-08-07T08:30:27;17.20;69.40
38582;DHT22;24349;53.720;10.014;2023-08-07T08:32:53;17.10;76.00
38582;DHT22;24349;53.720;10.014;2023-08-07T08:35:19;17.10;82.70
38582;DHT22;24349;53.720;10.014;2023-08-07T08:37:44;17.10;70.20
38582;DHT22;24349;53.720;10.014;2023-08-07T08:40:10;17.10;68.50
38582;DHT22;24349;53.720;10.014;2023-08-07T08:42:43;16.90;86.10
38582;DHT22;24349;53.720;10.014;2023-08-07T08:45:13;16.80;91.50
38582;DHT22;24349;53.720;10.014;2023-08-07T08:47:39;16.60;99.10
38582;DHT22;24349;53.720;10.014;2023-08-07T08:50:08;16.30;99.90
38582;DHT22;24349;53.720;10.014;2023-08-07T08:52:36;16.30;99.90
38582;DHT22;24349;53.720;10.014;2023-08-07T08:55:02;16.30;99.90
38582;DHT22;24349;53.720;10.014;2023-08-07T08:57:29;16.40;99.90
38582;DHT22;24349;53.720;10.014;2023-08-07T08:59:58;16.60;99.90
38582;DHT22;24349;53.720;10.014;2023-08-07T09:02:25;16.90;99.90
38582;DHT22;24349;53.720;10.014;2023-08-07T09:04:51;16.90;99.90
38582;DHT22;24349;53.720;10.014;2023-08-07T09:07:19;16.70;99.90
38582;DHT22;24349;53.720;10.014;2023-08-07T09:09:46;16.80;99.90
38582;DHT22;24349;53.720;10.014;2023-08-07T09:12:18;17.10;99.90
38582;DHT22;24349;53.720;10.014;2023-08-07T09:14:45;17.30;82.90
38582;DHT22;24349;53.720;10.014;2023-08-07T09:17:15;17.60;90.40
38582;DHT22;24349;53.720;10.014;2023-08-07T09:19:41;17.90;77.20
38582;DHT22;24349;53.720;10.014;2023-08-07T09:22:07;17.70;60.10
38582;DHT22;24349;53.720;10.014;2023-08-07T09:24:34;17.50;67.70
38582;DHT22;24349;53.720;10.014;2023-08-07T09:27:00;17.30;94.70
38582;DHT22;24349;53.720;10.014;2023-08-07T09:29:26;16.90;99.90
38582;DHT22;24349;53.720;10.014;2023-08-07T09:31:54;16.40;99.90
38582;DHT22;24349;53.720;10.014;2023-08-07T09:34:20;15.80;99.90
38582;DHT22;24349;53.720;10.014;2023-08-07T09:36:46;15.80;99.90
38582;DHT22;24349;53.720;10.014;2023-08-07T09:39:11;15.80;99.90
38582;DHT22;24349;53.720;10.014;2023-08-07T09:41:37;16.00;99.90
38582;DHT22;24349;53.720;10.014;2023-08-07T09:44:07;16.30;99.90
38582;DHT22;24349;53.720;10.014;2023-08-07T09:46:44;16.80;99.90
38582;DHT22;24349;53.720;10.014;2023-08-07T09:49:10;17.50;99.90
38582;DHT22;24349;53.720;10.014;2023-08-07T09:51:46;18.20;76.20
38582;DHT22;24349;53.720;10.014;2023-08-07T09:54:12;18.40;55.30
38582;DHT22;24349;53.720;10.014;2023-08-07T09:56:41;18.30;4.50
38582;DHT22;24349;53.720;10.014;2023-08-07T09:59:07;18.30;1.00
38582;DHT22;24349;53.720;10.014;2023-08-07T10:01:36;18.50;1.00
38582;DHT22;24349;53.720;10.014;2023-08-07T10:04:05;18.70;1.00
38582;DHT22;24349;53.720;10.014;2023-08-07T10:06:31;18.50;1.00
38582;DHT22;24349;53.720;10.014;2023-08-07T10:08:57;18.40;1.00
38582;DHT22;24349;53.720;10.014;2023-08-07T10:11:25;18.40;1.00
38582;DHT22;24349;53.720;10.014;2023-08-07T10:13:51;18.40;1.00
38582;DHT22;24349;53.720;10.014;2023-08-07T10:16:16;18.70;1.00
38582;DHT22;24349;53.720;10.014;2023-08-07T10:18:42;19.20;1.00
38582;DHT22;24349;53.720;10.014;2023-08-07T10:21:08;19.50;1.00
38582;DHT22;24349;53.720;10.014;2023-08-07T10:23:35;19.40;99.90
38582;DHT22;24349;53.720;10.014;2023-08-07T10:26:04;19.40;99.90
38582;DHT22;24349;53.720;10.014;2023-08-07T10:28:32;19.70;99.90
38582;DHT22;24349;53.720;10.014;2023-08-07T10:30:59;19.50;99.90
38582;DHT22;24349;53.720;10.014;2023-08-07T10:33:25;19.40;99.90
38582;DHT22;24349;53.720;10.014;2023-08-07T10:35:52;19.20;99.90
38582;DHT22;24349;53.720;10.014;2023-08-07T10:38:23;19.30;99.90
38582;DHT22;24349;53.720;10.014;2023-08-07T10:41:00;19.50;99.50
38582;DHT22;24349;53.720;10.014;2023-08-07T10:43:29;19.20;99.90
38582;DHT22;24349;53.720;10.014;2023-08-07T10:46:06;19.00;99.90
38582;DHT22;24349;53.720;10.014;2023-08-07T10:48:42;18.80;99.90
38582;DHT22;24349;53.720;10.014;2023-08-07T10:51:15;18.60;1.00
38582;DHT22;24349;53.720;10.014;2023-08-07T10:53:43;19.00;1.00
38582;DHT22;24349;53.720;10.014;2023-08-07T10:56:35;19.60;1.00
38582;DHT22;24349;53.720;10.014;2023-08-07T10:59:09;20.10;99.90
38582;DHT22;24349;53.720;10.014;2023-08-07T11:01:41;20.10;99.90
38582;DHT22;24349;53.720;10.014;2023-08-07T11:04:12;19.80;1.00
38582;DHT22;24349;53.720;10.014;2023-08-07T11:06:41;19.40;1.00
38582;DHT22;24349;53.720;10.014;2023-08-07T11:09:08;19.40;99.90
38582;DHT22;24349;53.720;10.014;2023-08-07T11:14:06;19.20;1.00
38582;DHT22;24349;53.720;10.014;2023-08-07T11:16:33;19.40;99.90
38582;DHT22;24349;53.720;10.014;2023-08-07T11:19:00;18.70;99.90
38582;DHT22;24349;53.720;10.014;2023-08-07T11:21:25;18.50;1.00
38582;DHT22;24349;53.720;10.014;2023-08-07T11:23:51;18.50;1.00
38582;DHT22;24349;53.720;10.014;2023-08-07T11:26:17;18.80;1.00
38582;DHT22;24349;53.720;10.014;2023-08-07T11:28:43;19.30;1.00
38582;DHT22;24349;53.720;10.014;2023-08-07T11:31:08;19.30;1.00
38582;DHT22;24349;53.720;10.014;2023-08-07T11:33:36;19.60;99.90
38582;DHT22;24349;53.720;10.014;2023-08-07T11:36:02;19.90;99.90
38582;DHT22;24349;53.720;10.014;2023-08-07T11:40:58;19.30;99.90
38582;DHT22;24349;53.720;10.014;2023-08-07T11:43:27;19.10;99.90
38582;DHT22;24349;53.720;10.014;2023-08-07T11:45:53;19.40;99.90
38582;DHT22;24349;53.720;10.014;2023-08-07T11:48:18;19.40;99.90
38582;DHT22;24349;53.720;10.014;2023-08-07T11:50:44;19.10;99.90
38582;DHT22;24349;53.720;10.014;2023-08-07T11:53:10;19.20;99.90
38582;DHT22;24349;53.720;10.014;2023-08-07T11:55:36;19.20;99.90
38582;DHT22;24349;53.720;10.014;2023-08-07T11:58:04;19.00;99.90
38582;DHT22;24349;53.720;10.014;2023-08-07T12:00:31;19.70;99.90
38582;DHT22;24349;53.720;10.014;2023-08-07T12:02:56;20.20;99.90
38582;DHT22;24349;53.720;10.014;2023-08-07T12:05:22;19.80;99.90
38582;DHT22;24349;53.720;10.014;2023-08-07T12:07:49;19.10;99.90
38582;DHT22;24349;53.720;10.014;2023-08-07T12:10:14;18.40;1.00
38582;DHT22;24349;53.720;10.014;2023-08-07T12:12:42;18.50;1.00
38582;DHT22;24349;53.720;10.014;2023-08-07T12:15:09;18.70;1.00
38582;DHT22;24349;53.720;10.014;2023-08-07T12:17:36;19.00;1.00
38582;DHT22;24349;53.720;10.014;2023-08-07T12:20:04;19.10;1.00
38582;DHT22;24349;53.720;10.014;2023-08-07T12:22:32;19.50;1.00
38582;DHT22;24349;53.720;10.014;2023-08-07T12:24:57;19.30;99.90
38582;DHT22;24349;53.720;10.014;2023-08-07T12:27:23;18.90;1.00
38582;DHT22;24349;53.720;10.014;2023-08-07T12:29:49;18.50;1.00
38582;DHT22;24349;53.720;10.014;2023-08-07T12:32:15;17.90;43.30
38582;DHT22;24349;53.720;10.014;2023-08-07T12:34:40;17.50;38.30
38582;DHT22;24349;53.720;10.014;2023-08-07T12:37:06;17.00;65.60
38582;DHT22;24349;53.720;10.014;2023-08-07T12:39:32;17.00;80.10
38582;DHT22;24349;53.720;10.014;2023-08-07T12:41:57;17.50;77.90
38582;DHT22;24349;53.720;10.014;2023-08-07T12:44:23;18.00;37.10
38582;DHT22;24349;53.720;10.014;2023-08-07T12:46:49;18.50;1.00
38582;DHT22;24349;53.720;10.014;2023-08-07T12:49:15;19.10;1.00
38582;DHT22;24349;53.720;10.014;2023-08-07T12:51:41;19.90;99.90
38582;DHT22;24349;53.720;10.014;2023-08-07T12:54:06;20.30;99.90
38582;DHT22;24349;53.720;10.014;2023-08-07T12:56:32;20.20;99.90
38582;DHT22;24349;53.720;10.014;2023-08-07T12:58:57;19.70;99.90
38582;DHT22;24349;53.720;10.014;2023-08-07T13:01:23;19.50;99.90
38582;DHT22;24349;53.720;10.014;2023-08-07T13:03:49;19.50;99.90
38582;DHT22;24349;53.720;10.014;2023-08-07T13:06:14;19.40;99.90
38582;DHT22;24349;53.720;10.014;2023-08-07T13:08:40;19.20;99.90
38582;DHT22;24349;53.720;10.014;2023-08-07T13:11:06;20.00;99.90
38582;DHT22;24349;53.720;10.014;2023-08-07T13:13:32;20.90;99.90
38582;DHT22;24349;53.720;10.014;2023-08-07T13:15:57;20.60;99.90
38582;DHT22;24349;53.720;10.014;2023-08-07T13:18:24;20.40;99.90
38582;DHT22;24349;53.720;10.014;2023-08-07T13:20:49;20.20;99.90
38582;DHT22;24349;53.720;10.014;2023-08-07T13:23:15;19.50;99.90
38582;DHT22;24349;53.720;10.014;2023-08-07T13:25:41;19.10;99.90
38582;DHT22;24349;53.720;10.014;2023-08-07T13:28:06;18.80;1.00
38582;DHT22;24349;53.720;10.014;2023-08-07T13:30:35;18.60;1.00
38582;DHT22;24349;53.720;10.014;2023-08-07T13:33:01;18.40;1.00
38582;DHT22;24349;53.720;10.014;2023-08-07T13:35:26;18.70;1.00
38582;DHT22;24349;53.720;10.014;2023-08-07T13:37:52;18.40;1.00
38582;DHT22;24349;53.720;10.014;2023-08-07T13:40:18;18.10;1.00
38582;DHT22;24349;53.720;10.014;2023-08-07T13:42:45;18.10;1.00
38582;DHT22;24349;53.720;10.014;2023-08-07T13:45:12;18.00;1.00
38582;DHT22;24349;53.720;10.014;2023-08-07T13:47:39;17.80;1.00
38582;DHT22;24349;53.720;10.014;2023-08-07T13:50:05;17.80;22.10
38582;DHT22;24349;53.720;10.014;2023-08-07T13:52:33;17.40;8.50
38582;DHT22;24349;53.720;10.014;2023-08-07T13:54:58;17.20;26.40
38582;DHT22;24349;53.720;10.014;2023-08-07T13:57:24;17.20;19.70
38582;DHT22;24349;53.720;10.014;2023-08-07T13:59:50;17.00;23.60
38582;DHT22;24349;53.720;10.014;2023-08-07T14:02:15;17.00;47.80
38582;DHT22;24349;53.720;10.014;2023-08-07T14:04:41;17.00;52.00
38582;DHT22;24349;53.720;10.014;2023-08-07T14:07:10;17.10;36.50
38582;DHT22;24349;53.720;10.014;2023-08-07T14:09:36;17.20;35.20
38582;DHT22;24349;53.720;10.014;2023-08-07T14:12:03;17.40;9.10
38582;DHT22;24349;53.720;10.014;2023-08-07T14:14:28;18.00;1.60
38582;DHT22;24349;53.720;10.014;2023-08-07T14:16:54;19.40;99.90
38582;DHT22;24349;53.720;10.014;2023-08-07T14:19:23;20.90;99.90
38582;DHT22;24349;53.720;10.014;2023-08-07T14:21:49;22.30;99.90
38582;DHT22;24349;53.720;10.014;2023-08-07T14:24:15;23.20;99.90
38582;DHT22;24349;53.720;10.014;2023-08-07T14:26:42;23.40;99.10
38582;DHT22;24349;53.720;10.014;2023-08-07T14:29:08;22.60;98.70
38582;DHT22;24349;53.720;10.014;2023-08-07T14:31:33;22.80;98.60
38582;DHT22;24349;53.720;10.014;2023-08-07T14:33:59;22.80;97.90
38582;DHT22;24349;53.720;10.014;2023-08-07T14:36:25;23.60;98.80
38582;DHT22;24349;53.720;10.014;2023-08-07T14:38:50;23.00;98.70
38582;DHT22;24349;53.720;10.014;2023-08-07T14:41:17;22.10;97.30
38582;DHT22;24349;53.720;10.014;2023-08-07T14:43:44;21.70;98.40
38582;DHT22;24349;53.720;10.014;2023-08-07T14:46:09;21.40;98.30
38582;DHT22;24349;53.720;10.014;2023-08-07T14:48:35;20.50;99.60
38582;DHT22;24349;53.720;10.014;2023-08-07T14:51:01;19.90;99.90
38582;DHT22;24349;53.720;10.014;2023-08-07T14:53:26;18.80;98.00
38582;DHT22;24349;53.720;10.014;2023-08-07T14:55:52;18.60;99.90
38582;DHT22;24349;53.720;10.014;2023-08-07T14:58:18;18.50;99.90
38582;DHT22;24349;53.720;10.014;2023-08-07T15:00:44;18.20;99.90
38582;DHT22;24349;53.720;10.014;2023-08-07T15:03:10;18.70;1.00
38582;DHT22;24349;53.720;10.014;2023-08-07T15:05:36;19.50;99.90
38582;DHT22;24349;53.720;10.014;2023-08-07T15:08:02;19.70;99.90
38582;DHT22;24349;53.720;10.014;2023-08-07T15:10:28;19.20;99.90
38582;DHT22;24349;53.720;10.014;2023-08-07T15:12:53;18.40;1.00
38582;DHT22;24349;53.720;10.014;2023-08-07T15:15:21;18.10;1.00
38582;DHT22;24349;53.720;10.014;2023-08-07T15:17:46;18.00;1.00
38582;DHT22;24349;53.720;10.014;2023-08-07T15:20:12;18.00;1.00
38582;DHT22;24349;53.720;10.014;2023-08-07T15:22:37;17.90;1.00